sensor_id;sensor_type;location;lat;lon;timestamp;pressure;altitude;pressure_sealevel;temperature;humidity
11223;BME280;5668;52.012;8.724;2023-04-25T00:00:43;99358.56;;;9.85;81.16
11223;BME280;5668;52.012;8.724;2023-04-25T00:03:11;99365.63;;;9.83;81.18
11223;BME280;5668;52.012;8.724;2023-04-25T00:05:39;99365.63;;;9.83;81.48
11223;BME280;5668;52.012;8.724;2023-04-25T00:08:07;99358.56;;;9.85;81.51
11223;BME280;5668;52.012;8.724;2023-04-25T00:10:34;99365.88;;;9.80;81.60
11223;BME280;5668;52.012;8.724;2023-04-25T00:13:02;99354.56;;;9.81;82.06
11223;BME280;5668;52.012;8.724;2023-04-25T00:15:29;99366.16;;;9.77;82.39
11223;BME280;5668;52.012;8.724;2023-04-25T00:17:57;99363.66;;;9.75;82.06
11223;BME280;5668;52.012;8.724;2023-04-25T00:20:25;99365.69;;;9.71;82.07
11223;BME280;5668;52.012;8.724;2023-04-25T00:22:53;99371.56;;;9.74;81.92
11223;BME280;5668;52.012;8.724;2023-04-25T00:25:20;99368.38;;;9.70;82.96
11223;BME280;5668;52.012;8.724;2023-04-25T00:27:47;99368.38;;;9.70;82.30
11223;BME280;5668;52.012;8.724;2023-04-25T00:30:15;99363.78;;;9.74;82.51
11223;BME280;5668;52.012;8.724;2023-04-25T00:32:42;99367.22;;;9.74;82.69
11223;BME280;5668;52.012;8.724;2023-04-25T00:35:09;99359.81;;;9.69;82.73
11223;BME280;5668;52.012;8.724;2023-04-25T00:37:38;99366.06;;;9.67;82.63
11223;BME280;5668;52.012;8.724;2023-04-25T00:40:07;99366.63;;;9.70;83.29
11223;BME280;5668;52.012;8.724;2023-04-25T00:42:36;99362.66;;;9.66;83.41
11223;BME280;5668;52.012;8.724;2023-04-25T00:45:06;99366.06;;;9.67;84.00
11223;BME280;5668;52.012;8.724;2023-04-25T00:47:34;99366.19;;;9.65;84.25
11223;BME280;5668;52.012;8.724;2023-04-25T00:50:03;99365.25;;;9.66;84.40
11223;BME280;5668;52.012;8.724;2023-04-25T00:52:31;99361.00;;;9.65;84.40
11223;BME280;5668;52.012;8.724;2023-04-25T00:55:01;99358.53;;;9.64;84.64
11223;BME280;5668;52.012;8.724;2023-04-25T00:57:28;99354.97;;;9.65;84.75
11223;BME280;5668;52.012;8.724;2023-04-25T00:59:56;99353.22;;;9.65;84.87
11223;BME280;5668;52.012;8.724;2023-04-25T01:02:23;99353.91;;;9.67;84.46
11223;BME280;5668;52.012;8.724;2023-04-25T01:04:51;99351.31;;;9.67;85.01
11223;BME280;5668;52.012;8.724;2023-04-25T01:07:20;99357.34;;;9.68;84.89
11223;BME280;5668;52.012;8.724;2023-04-25T01:09:47;99359.22;;;9.66;85.17
11223;BME280;5668;52.012;8.724;2023-04-25T01:12:16;99360.59;;;9.70;84.86
11223;BME280;5668;52.012;8.724;2023-04-25T01:14:43;99365.25;;;9.66;84.57
11223;BME280;5668;52.012;8.724;2023-04-25T01:17:11;99368.78;;;9.65;85.52
11223;BME280;5668;52.012;8.724;2023-04-25T01:19:38;99365.47;;;9.63;85.35
11223;BME280;5668;52.012;8.724;2023-04-25T01:22:07;99368.06;;;9.63;85.58
11223;BME280;5668;52.012;8.724;2023-04-25T01:24:36;99367.00;;;9.66;86.28
11223;BME280;5668;52.012;8.724;2023-04-25T01:27:04;99369.84;;;9.63;86.61
11223;BME280;5668;52.012;8.724;2023-04-25T01:29:32;99373.97;;;9.65;86.79
11223;BME280;5668;52.012;8.724;2023-04-25T01:31:59;99372.31;;;9.64;86.32
11223;BME280;5668;52.012;8.724;2023-04-25T01:34:27;99363.47;;;9.67;86.32
11223;BME280;5668;52.012;8.724;2023-04-25T01:36:54;99365.34;;;9.65;86.40
11223;BME280;5668;52.012;8.724;2023-04-25T01:39:23;99362.53;;;9.68;86.30
11223;BME280;5668;52.012;8.724;2023-04-25T01:41:50;99365.44;;;9.75;86.15
11223;BME280;5668;52.012;8.724;2023-04-25T01:44:18;99360.75;;;9.68;86.84
11223;BME280;5668;52.012;8.724;2023-04-25T01:46:45;99370.66;;;9.63;87.06
11223;BME280;5668;52.012;8.724;2023-04-25T01:49:12;99376.78;;;9.62;86.82
11223;BME280;5668;52.012;8.724;2023-04-25T01:51:39;99371.59;;;9.62;87.31
11223;BME280;5668;52.012;8.724;2023-04-25T01:54:08;99375.19;;;9.61;88.28
11223;BME280;5668;52.012;8.724;2023-04-25T01:56:38;99375.19;;;9.61;87.71
11223;BME280;5668;52.012;8.724;2023-04-25T01:59:06;99381.31;;;9.60;88.10
11223;BME280;5668;52.012;8.724;2023-04-25T02:01:33;99375.19;;;9.61;87.96
11223;BME280;5668;52.012;8.724;2023-04-25T02:04:00;99385.91;;;9.57;88.36
11223;BME280;5668;52.012;8.724;2023-04-25T02:06:28;99388.50;;;9.57;88.98
11223;BME280;5668;52.012;8.724;2023-04-25T02:08:56;99378.25;;;9.55;89.28
11223;BME280;5668;52.012;8.724;2023-04-25T02:11:23;99383.19;;;9.58;88.90
11223;BME280;5668;52.012;8.724;2023-04-25T02:13:52;99383.56;;;9.54;89.63
11223;BME280;5668;52.012;8.724;2023-04-25T02:16:19;99390.53;;;9.53;89.61
11223;BME280;5668;52.012;8.724;2023-04-25T02:18:46;99387.22;;;9.51;90.34
11223;BME280;5668;52.012;8.724;2023-04-25T02:21:14;99389.94;;;9.50;91.09
11223;BME280;5668;52.012;8.724;2023-04-25T02:23:41;99393.59;;;9.47;91.12
11223;BME280;5668;52.012;8.724;2023-04-25T02:26:08;99391.97;;;9.46;91.15
11223;BME280;5668;52.012;8.724;2023-04-25T02:28:37;99393.75;;;9.46;91.15
11223;BME280;5668;52.012;8.724;2023-04-25T02:31:05;99399.75;;;9.46;90.96
11223;BME280;5668;52.012;8.724;2023-04-25T02:33:33;99397.00;;;9.48;91.08
11223;BME280;5668;52.012;8.724;2023-04-25T02:36:00;99404.66;;;9.49;91.72
11223;BME280;5668;52.012;8.724;2023-04-25T02:38:27;99404.44;;;9.52;92.18
11223;BME280;5668;52.012;8.724;2023-04-25T02:40:54;99394.88;;;9.53;91.94
11223;BME280;5668;52.012;8.724;2023-04-25T02:43:22;99402.28;;;9.57;91.90
11223;BME280;5668;52.012;8.724;2023-04-25T02:45:49;99403.72;;;9.61;92.43
11223;BME280;5668;52.012;8.724;2023-04-25T02:48:17;99404.28;;;9.65;91.42
11223;BME280;5668;52.012;8.724;2023-04-25T02:50:44;99403.22;;;9.67;91.32
11223;BME280;5668;52.012;8.724;2023-04-25T02:53:12;99403.91;;;9.69;91.39
11223;BME280;5668;52.012;8.724;2023-04-25T02:55:39;99405.81;;;9.67;90.81
11223;BME280;5668;52.012;8.724;2023-04-25T02:58:06;99400.72;;;9.66;90.71
11223;BME280;5668;52.012;8.724;2023-04-25T03:00:34;99412.75;;;9.67;91.09
11223;BME280;5668;52.012;8.724;2023-04-25T03:03:01;99412.31;;;9.62;91.12
11223;BME280;5668;52.012;8.724;2023-04-25T03:05:29;99410.50;;;9.62;91.80
11223;BME280;5668;52.012;8.724;2023-04-25T03:07:56;99420.88;;;9.62;92.29
11223;BME280;5668;52.012;8.724;2023-04-25T03:10:24;99426.91;;;9.63;92.47
11223;BME280;5668;52.012;8.724;2023-04-25T03:12:52;99424.19;;;9.64;91.55
11223;BME280;5668;52.012;8.724;2023-04-25T03:15:19;99420.53;;;9.67;91.27
11223;BME280;5668;52.012;8.724;2023-04-25T03:17:46;99414.75;;;9.63;91.47
11223;BME280;5668;52.012;8.724;2023-04-25T03:20:14;99421.88;;;9.61;91.71
11223;BME280;5668;52.012;8.724;2023-04-25T03:22:43;99418.44;;;9.61;91.14
11223;BME280;5668;52.012;8.724;2023-04-25T03:25:10;99420.81;;;9.53;91.55
11223;BME280;5668;52.012;8.724;2023-04-25T03:27:38;99427.78;;;9.52;91.88
11223;BME280;5668;52.012;8.724;2023-04-25T03:30:06;99430.38;;;9.52;91.80
11223;BME280;5668;52.012;8.724;2023-04-25T03:32:34;99430.59;;;9.49;90.97
11223;BME280;5668;52.012;8.724;2023-04-25T03:35:01;99438.28;;;9.51;91.31
11223;BME280;5668;52.012;8.724;2023-04-25T03:37:29;99441.69;;;9.51;91.50
11223;BME280;5668;52.012;8.724;2023-04-25T03:39:57;99448.16;;;9.57;90.60
11223;BME280;5668;52.012;8.724;2023-04-25T03:42:24;99453.94;;;9.60;90.52
11223;BME280;5668;52.012;8.724;2023-04-25T03:44:52;99448.75;;;9.60;90.09
11223;BME280;5668;52.012;8.724;2023-04-25T03:47:19;99452.50;;;9.56;90.73
11223;BME280;5668;52.012;8.724;2023-04-25T03:49:46;99449.09;;;9.56;90.39
11223;BME280;5668;52.012;8.724;2023-04-25T03:52:15;99456.31;;;9.52;90.36
11223;BME280;5668;52.012;8.724;2023-04-25T03:54:42;99458.91;;;9.52;90.49
11223;BME280;5668;52.012;8.724;2023-04-25T03:57:11;99463.38;;;9.50;90.14
11223;BME280;5668;52.012;8.724;2023-04-25T03:59:38;99462.94;;;9.45;89.45
11223;BME280;5668;52.012;8.724;2023-04-25T04:02:05;99465.63;;;9.44;89.08
11223;BME280;5668;52.012;8.724;2023-04-25T04:04:32;99465.19;;;9.39;89.46
11223;BME280;5668;52.012;8.724;2023-04-25T04:07:00;99460.22;;;9.36;89.22
11223;BME280;5668;52.012;8.724;2023-04-25T04:09:27;99466.94;;;9.38;89.54
11223;BME280;5668;52.012;8.724;2023-04-25T04:11:54;99473.31;;;9.34;89.29
11223;BME280;5668;52.012;8.724;2023-04-25T04:14:23;99473.06;;;9.37;89.47
11223;BME280;5668;52.012;8.724;2023-04-25T04:16:51;99483.44;;;9.37;88.65
11223;BME280;5668;52.012;8.724;2023-04-25T04:19:18;99481.78;;;9.36;89.05
11223;BME280;5668;52.012;8.724;2023-04-25T04:21:46;99487.81;;;9.37;89.15
11223;BME280;5668;52.012;8.724;2023-04-25T04:24:13;99490.50;;;9.35;89.67
11223;BME280;5668;52.012;8.724;2023-04-25T04:26:40;99494.53;;;9.39;89.28
11223;BME280;5668;52.012;8.724;2023-04-25T04:29:10;99494.97;;;9.33;88.30
11223;BME280;5668;52.012;8.724;2023-04-25T04:31:40;99494.88;;;9.35;89.18
11223;BME280;5668;52.012;8.724;2023-04-25T04:34:07;99499.34;;;9.32;88.97
11223;BME280;5668;52.012;8.724;2023-04-25T04:36:35;99511.25;;;9.35;89.23
11223;BME280;5668;52.012;8.724;2023-04-25T04:39:03;99516.69;;;9.32;88.45
11223;BME280;5668;52.012;8.724;2023-04-25T04:41:31;99513.50;;;9.28;88.29
11223;BME280;5668;52.012;8.724;2023-04-25T04:43:58;99522.22;;;9.27;88.68
11223;BME280;5668;52.012;8.724;2023-04-25T04:46:27;99525.28;;;9.21;88.48
11223;BME280;5668;52.012;8.724;2023-04-25T04:48:56;99525.19;;;9.23;88.20
11223;BME280;5668;52.012;8.724;2023-04-25T04:51:24;99520.47;;;9.17;89.42
11223;BME280;5668;52.012;8.724;2023-04-25T04:53:51;99529.03;;;9.17;89.02
11223;BME280;5668;52.012;8.724;2023-04-25T04:56:19;99529.88;;;9.18;88.67
11223;BME280;5668;52.012;8.724;2023-04-25T04:58:49;99531.78;;;9.16;88.13
11223;BME280;5668;52.012;8.724;2023-04-25T05:01:16;99535.41;;;9.13;87.81
11223;BME280;5668;52.012;8.724;2023-04-25T05:03:43;99542.38;;;9.13;88.24
11223;BME280;5668;52.012;8.724;2023-04-25T05:06:12;99545.91;;;9.12;87.78
11223;BME280;5668;52.012;8.724;2023-04-25T05:08:40;99541.66;;;9.11;88.46
11223;BME280;5668;52.012;8.724;2023-04-25T05:11:08;99542.16;;;9.16;88.00
11223;BME280;5668;52.012;8.724;2023-04-25T05:13:36;99545.19;;;9.21;87.72
11223;BME280;5668;52.012;8.724;2023-04-25T05:16:03;99554.53;;;9.23;87.22
11223;BME280;5668;52.012;8.724;2023-04-25T05:18:30;99554.63;;;9.22;86.48
11223;BME280;5668;52.012;8.724;2023-04-25T05:20:58;99557.44;;;9.19;86.94
11223;BME280;5668;52.012;8.724;2023-04-25T05:23:26;99556.75;;;9.17;86.97
11223;BME280;5668;52.012;8.724;2023-04-25T05:25:56;99559.34;;;9.17;87.45
11223;BME280;5668;52.012;8.724;2023-04-25T05:28:23;99558.53;;;9.16;86.90
11223;BME280;5668;52.012;8.724;2023-04-25T05:30:50;99557.69;;;9.16;87.08
11223;BME280;5668;52.012;8.724;2023-04-25T05:33:18;99561.22;;;9.15;86.70
11223;BME280;5668;52.012;8.724;2023-04-25T05:35:45;99566.41;;;9.15;87.07
11223;BME280;5668;52.012;8.724;2023-04-25T05:38:13;99566.41;;;9.15;87.36
11223;BME280;5668;52.012;8.724;2023-04-25T05:40:42;99570.28;;;9.20;86.99
11223;BME280;5668;52.012;8.724;2023-04-25T05:43:09;99566.66;;;9.23;87.13
11223;BME280;5668;52.012;8.724;2023-04-25T05:45:36;99578.31;;;9.28;86.90
11223;BME280;5668;52.012;8.724;2023-04-25T05:48:03;99581.03;;;9.27;85.96
11223;BME280;5668;52.012;8.724;2023-04-25T05:50:31;99579.38;;;9.26;87.32
11223;BME280;5668;52.012;8.724;2023-04-25T05:52:58;99580.81;;;9.30;86.58
11223;BME280;5668;52.012;8.724;2023-04-25T05:55:25;99587.16;;;9.26;86.21
11223;BME280;5668;52.012;8.724;2023-04-25T05:57:53;99582.91;;;9.25;86.76
11223;BME280;5668;52.012;8.724;2023-04-25T06:00:21;99587.97;;;9.26;86.70
11223;BME280;5668;52.012;8.724;2023-04-25T06:02:48;99592.59;;;9.23;86.31
11223;BME280;5668;52.012;8.724;2023-04-25T06:05:16;99598.44;;;9.25;86.16
11223;BME280;5668;52.012;8.724;2023-04-25T06:07:43;99601.19;;;9.23;85.64
11223;BME280;5668;52.012;8.724;2023-04-25T06:10:11;99592.69;;;9.21;85.45
11223;BME280;5668;52.012;8.724;2023-04-25T06:12:39;99607.19;;;9.24;85.68
11223;BME280;5668;52.012;8.724;2023-04-25T06:15:08;99602.84;;;9.24;85.43
11223;BME280;5668;52.012;8.724;2023-04-25T06:17:36;99614.25;;;9.22;85.21
11223;BME280;5668;52.012;8.724;2023-04-25T06:20:05;99617.56;;;9.24;85.22
11223;BME280;5668;52.012;8.724;2023-04-25T06:22:35;99612.59;;;9.21;84.29
11223;BME280;5668;52.012;8.724;2023-04-25T06:25:03;99615.66;;;9.15;84.11
11223;BME280;5668;52.012;8.724;2023-04-25T06:27:30;99620.72;;;9.16;83.47
11223;BME280;5668;52.012;8.724;2023-04-25T06:29:57;99624.84;;;9.19;83.67
11223;BME280;5668;52.012;8.724;2023-04-25T06:32:26;99626.97;;;9.14;82.86
11223;BME280;5668;52.012;8.724;2023-04-25T06:34:55;99626.13;;;9.13;83.15
11223;BME280;5668;52.012;8.724;2023-04-25T06:37:23;99628.84;;;9.12;83.09
11223;BME280;5668;52.012;8.724;2023-04-25T06:39:51;99625.91;;;9.16;83.20
11223;BME280;5668;52.012;8.724;2023-04-25T06:42:18;99625.09;;;9.16;83.56
11223;BME280;5668;52.012;8.724;2023-04-25T06:44:45;99636.41;;;9.15;82.61
11223;BME280;5668;52.012;8.724;2023-04-25T06:47:13;99630.25;;;9.05;81.21
11223;BME280;5668;52.012;8.724;2023-04-25T06:49:41;99629.50;;;9.03;81.16
11223;BME280;5668;52.012;8.724;2023-04-25T06:52:09;99637.53;;;9.00;80.57
11223;BME280;5668;52.012;8.724;2023-04-25T06:54:36;99633.50;;;8.96;80.53
11223;BME280;5668;52.012;8.724;2023-04-25T06:57:03;99647.66;;;9.03;80.12
11223;BME280;5668;52.012;8.724;2023-04-25T06:59:31;99647.34;;;9.07;80.38
11223;BME280;5668;52.012;8.724;2023-04-25T07:01:58;99652.41;;;9.09;80.09
11223;BME280;5668;52.012;8.724;2023-04-25T07:04:25;99653.94;;;9.11;80.53
11223;BME280;5668;52.012;8.724;2023-04-25T07:06:54;99654.75;;;9.12;81.16
11223;BME280;5668;52.012;8.724;2023-04-25T07:09:21;99654.19;;;9.08;80.31
11223;BME280;5668;52.012;8.724;2023-04-25T07:11:49;99656.63;;;9.10;80.96
11223;BME280;5668;52.012;8.724;2023-04-25T07:14:16;99658.78;;;9.16;80.83
11223;BME280;5668;52.012;8.724;2023-04-25T07:16:43;99660.56;;;9.15;80.45
11223;BME280;5668;52.012;8.724;2023-04-25T07:19:10;99666.31;;;9.19;80.65
11223;BME280;5668;52.012;8.724;2023-04-25T07:21:38;99667.16;;;9.19;80.65
11223;BME280;5668;52.012;8.724;2023-04-25T07:24:07;99669.53;;;9.22;80.83
11223;BME280;5668;52.012;8.724;2023-04-25T07:26:34;99666.34;;;9.30;80.85
11223;BME280;5668;52.012;8.724;2023-04-25T07:29:01;99666.81;;;9.35;81.32
11223;BME280;5668;52.012;8.724;2023-04-25T07:31:28;99673.88;;;9.33;79.45
11223;BME280;5668;52.012;8.724;2023-04-25T07:33:56;99681.09;;;9.29;78.96
11223;BME280;5668;52.012;8.724;2023-04-25T07:36:23;99680.97;;;9.31;79.41
11223;BME280;5668;52.012;8.724;2023-04-25T07:38:51;99683.78;;;9.28;78.24
11223;BME280;5668;52.012;8.724;2023-04-25T07:41:20;99685.56;;;9.27;77.55
11223;BME280;5668;52.012;8.724;2023-04-25T07:43:47;99688.72;;;9.20;77.82
11223;BME280;5668;52.012;8.724;2023-04-25T07:46:14;99688.72;;;9.20;77.64
11223;BME280;5668;52.012;8.724;2023-04-25T07:48:41;99685.53;;;9.16;77.41
11223;BME280;5668;52.012;8.724;2023-04-25T07:51:08;99687.31;;;9.27;77.25
11223;BME280;5668;52.012;8.724;2023-04-25T07:53:36;99687.56;;;9.35;78.03
11223;BME280;5668;52.012;8.724;2023-04-25T07:56:03;99691.81;;;9.36;77.43
11223;BME280;5668;52.012;8.724;2023-04-25T07:58:32;99692.78;;;9.46;77.60
11223;BME280;5668;52.012;8.724;2023-04-25T08:00:59;99692.53;;;9.49;77.09
11223;BME280;5668;52.012;8.724;2023-04-25T08:03:26;99695.84;;;9.51;76.40
11223;BME280;5668;52.012;8.724;2023-04-25T08:05:54;99699.16;;;9.53;75.89
11223;BME280;5668;52.012;8.724;2023-04-25T08:08:21;99693.16;;;9.53;75.39
11223;BME280;5668;52.012;8.724;2023-04-25T08:10:48;99695.63;;;9.54;74.86
11223;BME280;5668;52.012;8.724;2023-04-25T08:13:16;99702.94;;;9.60;75.18
11223;BME280;5668;52.012;8.724;2023-04-25T08:15:45;99703.78;;;9.61;75.14
11223;BME280;5668;52.012;8.724;2023-04-25T08:18:12;99717.44;;;9.63;75.07
11223;BME280;5668;52.012;8.724;2023-04-25T08:20:39;99712.25;;;9.63;74.42
11223;BME280;5668;52.012;8.724;2023-04-25T08:23:06;99718.03;;;9.66;74.07
11223;BME280;5668;52.012;8.724;2023-04-25T08:25:34;99717.34;;;9.76;74.43
11223;BME280;5668;52.012;8.724;2023-04-25T08:28:01;99715.44;;;9.78;73.50
11223;BME280;5668;52.012;8.724;2023-04-25T08:30:29;99722.19;;;9.69;70.91
11223;BME280;5668;52.012;8.724;2023-04-25T08:32:58;99734.69;;;9.75;69.95
11223;BME280;5668;52.012;8.724;2023-04-25T08:35:25;99731.03;;;9.78;70.18
11223;BME280;5668;52.012;8.724;2023-04-25T08:37:52;99731.03;;;9.78;68.50
11223;BME280;5668;52.012;8.724;2023-04-25T08:40:22;99734.09;;;9.83;69.15
11223;BME280;5668;52.012;8.724;2023-04-25T08:42:53;99746.38;;;9.81;68.61
11223;BME280;5668;52.012;8.724;2023-04-25T08:45:21;99743.88;;;9.79;68.14
11223;BME280;5668;52.012;8.724;2023-04-25T08:47:50;99753.00;;;9.85;67.99
11223;BME280;5668;52.012;8.724;2023-04-25T08:50:21;99753.22;;;9.82;67.73
11223;BME280;5668;52.012;8.724;2023-04-25T08:52:50;99750.41;;;9.85;67.98
11223;BME280;5668;52.012;8.724;2023-04-25T08:55:21;99755.44;;;9.86;67.34
11223;BME280;5668;52.012;8.724;2023-04-25T08:57:48;99761.34;;;9.88;67.02
11223;BME280;5668;52.012;8.724;2023-04-25T09:00:17;99774.69;;;9.84;65.83
11223;BME280;5668;52.012;8.724;2023-04-25T09:02:46;99772.56;;;9.89;66.28
11223;BME280;5668;52.012;8.724;2023-04-25T09:05:14;99774.94;;;9.92;67.35
11223;BME280;5668;52.012;8.724;2023-04-25T09:07:42;99779.06;;;9.94;67.48
11223;BME280;5668;52.012;8.724;2023-04-25T09:10:11;99775.63;;;9.94;65.95
11223;BME280;5668;52.012;8.724;2023-04-25T09:12:39;99774.13;;;9.91;65.64
11223;BME280;5668;52.012;8.724;2023-04-25T09:15:08;99780.50;;;9.98;65.71
11223;BME280;5668;52.012;8.724;2023-04-25T09:17:36;99780.84;;;10.05;65.66
11223;BME280;5668;52.012;8.724;2023-04-25T09:20:07;99783.91;;;10.10;65.57
11223;BME280;5668;52.012;8.724;2023-04-25T09:22:36;99788.88;;;10.13;65.33
11223;BME280;5668;52.012;8.724;2023-04-25T09:25:08;99796.06;;;10.09;64.12
11223;BME280;5668;52.012;8.724;2023-04-25T09:27:36;99801.88;;;10.13;63.72
11223;BME280;5668;52.012;8.724;2023-04-25T09:30:04;99805.03;;;10.17;64.43
11223;BME280;5668;52.012;8.724;2023-04-25T09:32:32;99809.41;;;10.16;64.80
11223;BME280;5668;52.012;8.724;2023-04-25T09:34:59;99805.28;;;10.14;62.36
11223;BME280;5668;52.012;8.724;2023-04-25T09:37:27;99811.53;;;10.11;61.07
11223;BME280;5668;52.012;8.724;2023-04-25T09:39:56;99801.16;;;10.11;62.12
11223;BME280;5668;52.012;8.724;2023-04-25T09:42:27;99799.66;;;10.20;62.23
11223;BME280;5668;52.012;8.724;2023-04-25T09:44:56;99803.88;;;10.32;62.65
11223;BME280;5668;52.012;8.724;2023-04-25T09:47:24;99807.56;;;10.40;62.30
11223;BME280;5668;52.012;8.724;2023-04-25T09:49:53;99807.06;;;10.46;62.28
11223;BME280;5668;52.012;8.724;2023-04-25T09:52:22;99807.81;;;10.37;61.10
11223;BME280;5668;52.012;8.724;2023-04-25T09:54:51;99818.66;;;10.31;60.33
11223;BME280;5668;52.012;8.724;2023-04-25T09:57:19;99815.38;;;10.29;60.13
11223;BME280;5668;52.012;8.724;2023-04-25T09:59:49;99825.16;;;10.26;59.32
11223;BME280;5668;52.012;8.724;2023-04-25T10:02:18;99820.31;;;10.21;59.17
11223;BME280;5668;52.012;8.724;2023-04-25T10:04:50;99825.91;;;10.15;59.49
11223;BME280;5668;52.012;8.724;2023-04-25T10:07:21;99834.28;;;10.07;59.60
11223;BME280;5668;52.012;8.724;2023-04-25T10:09:58;99833.56;;;9.94;58.65
11223;BME280;5668;52.012;8.724;2023-04-25T10:12:26;99842.19;;;9.95;59.79
11223;BME280;5668;52.012;8.724;2023-04-25T10:14:55;99840.06;;;10.00;60.36
11223;BME280;5668;52.012;8.724;2023-04-25T10:17:24;99847.50;;;10.04;61.26
11223;BME280;5668;52.012;8.724;2023-04-25T10:19:51;99844.81;;;10.06;61.17
11223;BME280;5668;52.012;8.724;2023-04-25T10:22:23;99846.78;;;10.02;59.79
11223;BME280;5668;52.012;8.724;2023-04-25T10:24:53;99852.72;;;10.04;59.76
11223;BME280;5668;52.012;8.724;2023-04-25T10:27:20;99849.75;;;10.09;60.70
11223;BME280;5668;52.012;8.724;2023-04-25T10:30:02;99855.41;;;10.03;59.38
11223;BME280;5668;52.012;8.724;2023-04-25T10:32:31;99860.47;;;9.93;59.79
11223;BME280;5668;52.012;8.724;2023-04-25T10:35:10;99858.44;;;9.86;60.42
11223;BME280;5668;52.012;8.724;2023-04-25T10:37:38;99857.75;;;9.84;60.19
11223;BME280;5668;52.012;8.724;2023-04-25T10:40:11;99862.22;;;9.93;60.59
11223;BME280;5668;52.012;8.724;2023-04-25T10:42:38;99864.50;;;9.97;62.38
11223;BME280;5668;52.012;8.724;2023-04-25T10:45:10;99868.38;;;10.03;62.65
11223;BME280;5668;52.012;8.724;2023-04-25T10:47:43;99867.94;;;10.09;62.94
11223;BME280;5668;52.012;8.724;2023-04-25T10:50:11;99870.88;;;10.16;63.78
11223;BME280;5668;52.012;8.724;2023-04-25T10:52:39;99863.63;;;10.21;63.71
11223;BME280;5668;52.012;8.724;2023-04-25T10:55:07;99866.81;;;10.24;64.57
11223;BME280;5668;52.012;8.724;2023-04-25T10:57:39;99856.09;;;10.29;64.06
11223;BME280;5668;52.012;8.724;2023-04-25T11:00:11;99853.25;;;10.32;64.90
11223;BME280;5668;52.012;8.724;2023-04-25T11:02:41;99861.16;;;10.41;65.07
11223;BME280;5668;52.012;8.724;2023-04-25T11:05:14;99862.34;;;10.48;65.30
11223;BME280;5668;52.012;8.724;2023-04-25T11:07:50;99864.94;;;10.48;64.13
11223;BME280;5668;52.012;8.724;2023-04-25T11:10:20;99863.75;;;10.53;64.24
11223;BME280;5668;52.012;8.724;2023-04-25T11:12:51;99865.41;;;10.54;63.81
11223;BME280;5668;52.012;8.724;2023-04-25T11:15:20;99864.84;;;10.50;61.78
11223;BME280;5668;52.012;8.724;2023-04-25T11:17:47;99868.50;;;10.59;61.63
11223;BME280;5668;52.012;8.724;2023-04-25T11:20:15;99873.44;;;10.62;60.99
11223;BME280;5668;52.012;8.724;2023-04-25T11:22:44;99878.41;;;10.65;60.94
11223;BME280;5668;52.012;8.724;2023-04-25T11:25:13;99870.63;;;10.65;60.88
11223;BME280;5668;52.012;8.724;2023-04-25T11:27:50;99874.16;;;10.64;60.17
11223;BME280;5668;52.012;8.724;2023-04-25T11:30:20;99876.53;;;10.67;60.27
11223;BME280;5668;52.012;8.724;2023-04-25T11:32:48;99877.69;;;10.63;60.34
11223;BME280;5668;52.012;8.724;2023-04-25T11:35:16;99882.44;;;10.58;60.05
11223;BME280;5668;52.012;8.724;2023-04-25T11:37:44;99907.22;;;10.51;61.97
11223;BME280;5668;52.012;8.724;2023-04-25T11:40:12;99908.88;;;10.40;63.80
11223;BME280;5668;52.012;8.724;2023-04-25T11:42:44;99902.47;;;10.33;64.09
11223;BME280;5668;52.012;8.724;2023-04-25T11:45:12;99905.53;;;10.38;64.89
11223;BME280;5668;52.012;8.724;2023-04-25T11:47:40;99904.59;;;10.39;65.43
11223;BME280;5668;52.012;8.724;2023-04-25T11:50:09;99893.75;;;10.45;66.38
11223;BME280;5668;52.012;8.724;2023-04-25T11:52:39;99898.00;;;10.46;66.74
11223;BME280;5668;52.012;8.724;2023-04-25T11:55:08;99897.06;;;10.47;66.62
11223;BME280;5668;52.012;8.724;2023-04-25T11:57:35;99906.25;;;10.40;66.54
11223;BME280;5668;52.012;8.724;2023-04-25T12:00:08;99910.06;;;10.36;65.57
11223;BME280;5668;52.012;8.724;2023-04-25T12:02:37;99903.53;;;10.31;65.02
11223;BME280;5668;52.012;8.724;2023-04-25T12:05:08;99908.72;;;10.31;63.99
11223;BME280;5668;52.012;8.724;2023-04-25T12:07:35;99914.47;;;10.23;63.34
11223;BME280;5668;52.012;8.724;2023-04-25T12:10:07;99918.28;;;10.19;63.51
11223;BME280;5668;52.012;8.724;2023-04-25T12:12:37;99920.34;;;10.14;64.63
11223;BME280;5668;52.012;8.724;2023-04-25T12:15:12;99933.44;;;10.13;65.07
11223;BME280;5668;52.012;8.724;2023-04-25T12:17:41;99930.22;;;10.09;65.68
11223;BME280;5668;52.012;8.724;2023-04-25T12:20:14;99916.09;;;10.13;66.48
11223;BME280;5668;52.012;8.724;2023-04-25T12:22:42;99923.66;;;10.16;66.74
11223;BME280;5668;52.012;8.724;2023-04-25T12:25:11;99927.59;;;10.22;66.78
11223;BME280;5668;52.012;8.724;2023-04-25T12:27:39;99921.84;;;10.29;67.45
11223;BME280;5668;52.012;8.724;2023-04-25T12:30:09;99922.31;;;10.34;68.06
11223;BME280;5668;52.012;8.724;2023-04-25T12:32:37;99930.59;;;10.39;68.17
11223;BME280;5668;52.012;8.724;2023-04-25T12:35:05;99928.69;;;10.41;68.56
11223;BME280;5668;52.012;8.724;2023-04-25T12:37:34;99914.31;;;10.48;68.84
11223;BME280;5668;52.012;8.724;2023-04-25T12:40:02;99913.84;;;10.55;67.29
11223;BME280;5668;52.012;8.724;2023-04-25T12:42:30;99915.75;;;10.64;67.23
11223;BME280;5668;52.012;8.724;2023-04-25T12:44:57;99912.66;;;10.70;66.43
11223;BME280;5668;52.012;8.724;2023-04-25T12:47:25;99912.06;;;10.77;65.99
11223;BME280;5668;52.012;8.724;2023-04-25T12:49:52;99905.38;;;10.75;64.22
11223;BME280;5668;52.012;8.724;2023-04-25T12:52:19;99920.47;;;10.81;64.35
11223;BME280;5668;52.012;8.724;2023-04-25T12:54:47;99911.72;;;10.93;65.52
11223;BME280;5668;52.012;8.724;2023-04-25T12:57:15;99910.56;;;10.97;64.60
11223;BME280;5668;52.012;8.724;2023-04-25T12:59:42;99913.13;;;11.08;65.44
11223;BME280;5668;52.012;8.724;2023-04-25T13:02:09;99903.88;;;11.15;64.39
11223;BME280;5668;52.012;8.724;2023-04-25T13:04:37;99913.56;;;11.24;63.63
11223;BME280;5668;52.012;8.724;2023-04-25T13:07:04;99913.56;;;11.24;62.72
11223;BME280;5668;52.012;8.724;2023-04-25T13:09:31;99909.88;;;11.38;63.09
11223;BME280;5668;52.012;8.724;2023-04-25T13:12:00;99908.44;;;11.45;62.10
11223;BME280;5668;52.012;8.724;2023-04-25T13:14:27;99905.22;;;11.53;61.07
11223;BME280;5668;52.012;8.724;2023-04-25T13:16:54;99896.91;;;11.59;61.03
11223;BME280;5668;52.012;8.724;2023-04-25T13:19:22;99910.19;;;11.56;59.92
11223;BME280;5668;52.012;8.724;2023-04-25T13:21:49;99900.66;;;11.66;60.01
11223;BME280;5668;52.012;8.724;2023-04-25T13:24:16;99902.09;;;11.70;60.65